Íslenskir flugvellir

Veldu flugvelli í þeirri röð sem þeir eiga að birtast og styddu á hnappinn

Uppfært síðast 23.09.2020 - kl. 03:56

SIGMET síðustu 6 klst.

Engin SIGMET skeyti bárust síðustu 6 klst.

Egilsstaðir

METAR síðustu 3 klst

TímiSkeyti
2020-09-23 04.00METAR BIEG 230400Z 15003KT 9999 -FZDZ SCT008 OVC015 M01/M02 Q0996
2020-09-23 03.00METAR BIEG 230300Z 14003KT 9999 -FZDZ SCT009 OVC020 M03/M04 Q0996
2020-09-23 02.00METAR BIEG 230200Z 13004KT 9999 FEW020 SCT024 M04/M04 Q0996
2020-09-23 01.00METAR BIEG 230100Z 15005KT 9999 FEW050 M04/M05 Q0996

TAF

TAFBIEG2020-09-23 01.19Z23030301008KT 9999 SCT015 BKN025 TX03/2315Z TNM02/2400Z TEMPO 2303/2310 2000 RASN OVC008

Allur vindur er réttvísandi bæði í Metar og frá sjálfvirkum veðurstöðvum




Aðrir tengdir vefir



Þetta vefsvæði byggir á Eplica